Time;durP1;ratioP1;P1;durP2;ratioP2;P2;SDS_P1;SDS_P2;PMS_P1;PMS_P2;Temp;Humidity;BMP_temperature;BMP_pressure;BME280_temperature;BME280_humidity;BME280_pressure;Samples;Min_cycle;Max_cycle;Signal;HPM_P1;HPM_P2
2021/01/02 00:00:47;;;;;;;8.75;7.95;;;;;;;8.23;65.21;101142.13;5040770;28;20086;-84
2021/01/02 00:03:31;;;;;;;9.15;8.55;;;;;;;8.26;65.19;101149.03;5036127;28;20035;-84
2021/01/02 00:06:05;;;;;;;11.00;10.30;;;;;;;8.27;65.08;101133.63;5040406;28;20044;-84
2021/01/02 00:08:34;;;;;;;7.75;7.25;;;;;;;8.34;65.00;101149.03;5040304;28;20029;-84
2021/01/02 00:11:27;;;;;;;10.70;9.68;;;;;;;8.40;65.21;101152.88;5040502;28;20071;-84
2021/01/02 00:14:04;;;;;;;10.40;9.65;;;;;;;8.41;65.15;101149.16;5041192;28;20020;-84
2021/01/02 00:16:29;;;;;;;6.82;6.28;;;;;;;8.45;65.14;101161.38;5042865;28;20033;-84
2021/01/02 00:19:05;;;;;;;7.78;7.18;;;;;;;8.45;65.15;101153.25;5044163;28;20025;-83
2021/01/02 00:21:52;;;;;;;6.55;6.05;;;;;;;8.39;65.31;101154.75;5055240;28;20031;-84
2021/01/02 00:24:36;;;;;;;9.13;8.52;;;;;;;8.40;65.14;101150.16;5042117;28;20171;-84
2021/01/02 00:27:06;;;;;;;7.55;6.95;;;;;;;8.40;65.09;101163.72;5041377;28;20056;-84
2021/01/02 00:29:58;;;;;;;8.45;7.65;;;;;;;8.39;64.96;101165.59;5044453;28;20153;-84
2021/01/02 00:32:33;;;;;;;;;;;;;;;8.36;65.05;101168.66;5043336;28;20071;-84
2021/01/02 00:35:05;;;;;;;13.63;12.68;;;;;;;8.36;64.91;101162.41;5042607;28;20110;-84
2021/01/02 00:37:38;;;;;;;10.45;9.75;;;;;;;8.32;64.93;101159.16;5038912;28;20029;-83
2021/01/02 00:40:08;;;;;;;8.40;7.65;;;;;;;8.31;65.13;101157.50;5040663;28;20029;-84
2021/01/02 00:42:33;;;;;;;12.13;11.07;;;;;;;8.28;65.05;101159.69;5040110;28;20047;-84
2021/01/02 00:45:01;;;;;;;7.88;7.18;;;;;;;8.25;65.21;101161.75;5039271;28;20056;-84
2021/01/02 00:47:27;;;;;;;9.68;8.98;;;;;;;8.21;65.08;101163.09;5041002;28;20456;-84
2021/01/02 00:49:57;;;;;;;10.32;9.55;;;;;;;8.21;65.13;101165.81;5039954;28;20396;-83
2021/01/02 00:52:41;;;;;;;8.27;7.57;;;;;;;8.22;65.17;101158.53;5040214;28;20043;-84
2021/01/02 00:55:10;;;;;;;8.50;7.80;;;;;;;8.18;65.21;101163.44;5043431;28;20037;-84
2021/01/02 00:58:03;;;;;;;11.93;10.85;;;;;;;8.08;65.01;101151.97;5045703;28;20487;-83
2021/01/02 01:00:33;;;;;;;11.32;10.50;;;;;;;8.07;64.98;101167.34;5035740;28;20123;-83
2021/01/02 01:03:25;;;;;;;9.20;8.50;;;;;;;8.00;64.97;101160.09;5041903;28;20033;-84
2021/01/02 01:05:54;;;;;;;9.98;9.25;;;;;;;7.91;64.96;101161.13;5042335;28;20052;-83
2021/01/02 01:08:24;;;;;;;9.10;8.50;;;;;;;7.88;65.08;101165.88;5043684;28;20033;-82
2021/01/02 01:10:50;;;;;;;8.75;8.10;;;;;;;7.83;64.94;101167.38;5043509;28;20537;-83
2021/01/02 01:13:23;;;;;;;9.00;8.30;;;;;;;7.76;65.10;101161.81;5041290;28;20442;-83
2021/01/02 01:15:50;;;;;;;10.80;9.75;;;;;;;7.75;64.81;101173.66;5045246;28;20033;-83
2021/01/02 01:18:26;;;;;;;15.30;14.02;;;;;;;7.66;65.34;101166.53;5042911;28;20056;-82
2021/01/02 01:21:00;;;;;;;16.40;15.10;;;;;;;7.66;64.85;101177.38;5042449;28;20056;-82
2021/01/02 01:23:26;;;;;;;11.10;10.25;;;;;;;7.60;65.01;101175.34;5042102;28;20032;-82
2021/01/02 01:26:26;;;;;;;9.63;8.73;;;;;;;7.54;64.84;101176.88;5041240;28;20028;-82
2021/01/02 01:28:56;;;;;;;12.00;10.98;;;;;;;7.45;64.82;101183.31;5047908;28;20190;-82
2021/01/02 01:31:22;;;;;;;17.02;13.23;;;;;;;7.32;64.74;101190.03;5048025;28;20487;-82
2021/01/02 01:33:49;;;;;;;14.77;13.23;;;;;;;7.29;65.22;101186.81;5047472;28;20121;-81
2021/01/02 01:36:18;;;;;;;13.95;12.85;;;;;;;7.27;65.02;101184.25;5035610;28;20033;-82
2021/01/02 01:38:54;;;;;;;14.70;13.10;;;;;;;7.25;65.07;101185.47;5044264;28;20919;-82
2021/01/02 01:41:36;;;;;;;26.95;24.67;;;;;;;7.34;65.09;101188.00;5045319;28;20036;-81
2021/01/02 01:44:04;;;;;;;18.60;16.85;;;;;;;7.38;64.91;101196.63;5040543;28;20103;-82
2021/01/02 01:46:54;;;;;;;18.00;16.42;;;;;;;7.30;65.02;101191.22;5045277;28;20033;-81
2021/01/02 01:49:31;;;;;;;17.35;15.70;;;;;;;7.35;65.01;101194.25;5045785;28;20098;-82
2021/01/02 01:52:03;;;;;;;14.85;13.35;;;;;;;7.28;64.80;101191.38;5045706;28;20482;-83
2021/01/02 01:54:56;;;;;;;17.05;15.73;;;;;;;7.32;64.80;101200.88;5044781;28;20028;-83
2021/01/02 01:57:26;;;;;;;25.10;23.25;;;;;;;7.26;64.80;101197.97;5039662;28;20041;-82
2021/01/02 01:59:55;;;;;;;15.35;13.77;;;;;;;7.31;64.79;101203.75;5044471;28;20068;-83
2021/01/02 02:02:44;;;;;;;16.77;15.25;;;;;;;7.28;65.04;101207.59;5044054;28;20455;-83
2021/01/02 02:05:11;;;;;;;17.60;16.20;;;;;;;7.29;64.79;101194.91;5026985;28;20112;-83
2021/01/02 02:07:44;;;;;;;19.25;17.70;;;;;;;7.33;65.20;101204.41;5031754;28;20092;-83
2021/01/02 02:10:12;;;;;;;19.35;17.75;;;;;;;7.27;65.17;101195.09;5045538;28;20032;-83
2021/01/02 02:12:50;;;;;;;15.60;14.45;;;;;;;7.37;65.15;101197.66;5046895;28;20078;-83
2021/01/02 02:15:20;;;;;;;16.45;15.15;;;;;;;7.43;65.21;101197.00;5046940;28;20040;-83
2021/01/02 02:17:47;;;;;;;17.33;15.93;;;;;;;7.42;65.10;101191.75;5046469;28;20454;-83
2021/01/02 02:20:16;;;;;;;16.77;15.18;;;;;;;7.44;65.09;101201.38;5026550;28;20041;-84
2021/01/02 02:22:43;;;;;;;10.52;9.63;;;;;;;7.43;64.89;101199.69;5042159;28;20446;-82
2021/01/02 02:25:14;;;;;;;12.10;10.90;;;;;;;7.39;64.81;101203.75;5049309;28;20037;-83
2021/01/02 02:27:41;;;;;;;16.60;15.30;;;;;;;7.35;64.77;101203.25;5043958;28;20119;-84
2021/01/02 02:30:07;;;;;;;11.32;10.32;;;;;;;7.29;64.79;101200.34;5045688;28;20376;-83
2021/01/02 02:32:39;;;;;;;18.42;14.40;;;;;;;7.11;64.90;101181.53;5046376;28;20036;-82
2021/01/02 02:35:08;;;;;;;14.23;13.13;;;;;;;7.17;64.97;101200.66;5045285;28;20029;-82
2021/01/02 02:37:36;;;;;;;12.82;11.60;;;;;;;7.13;65.04;101196.56;5043081;28;21146;-82
2021/01/02 02:40:04;;;;;;;19.02;17.63;;;;;;;7.03;64.71;101186.91;5045759;28;20060;-82
2021/01/02 02:42:31;;;;;;;17.48;16.08;;;;;;;7.05;65.01;101206.53;5046636;28;20044;-82
2021/01/02 02:44:58;;;;;;;16.77;15.48;;;;;;;6.97;65.06;101197.38;5047036;28;20082;-82
2021/01/02 02:47:27;;;;;;;18.15;16.75;;;;;;;6.96;65.00;101192.97;5059292;28;20082;-82
2021/01/02 02:49:58;;;;;;;14.82;13.63;;;;;;;6.88;64.79;101197.53;5046494;28;20144;-82
2021/01/02 02:52:40;;;;;;;17.42;16.02;;;;;;;6.82;64.80;101202.56;5044636;28;20029;-82
2021/01/02 02:55:06;;;;;;;17.38;16.00;;;;;;;6.79;64.93;101202.88;5046812;28;20039;-81
2021/01/02 02:57:33;;;;;;;12.38;11.38;;;;;;;6.70;64.97;101194.91;5046416;28;20402;-82
2021/01/02 02:59:58;;;;;;;10.80;9.90;;;;;;;6.71;64.61;101205.56;5045969;28;20043;-82
2021/01/02 03:02:26;;;;;;;18.90;17.08;;;;;;;6.67;64.76;101214.16;5045538;28;20576;-82
2021/01/02 03:04:52;;;;;;;15.23;14.02;;;;;;;6.56;64.82;101201.78;5048087;28;20044;-82
2021/01/02 03:07:17;;;;;;;18.75;17.35;;;;;;;6.59;64.82;101214.97;5043945;28;20033;-82
2021/01/02 03:09:44;;;;;;;17.33;16.00;;;;;;;6.60;64.73;101203.16;5044896;28;20071;-81
2021/01/02 03:12:09;;;;;;;15.23;13.95;;;;;;;6.60;64.93;101216.66;5043867;28;20171;-82
2021/01/02 03:14:34;;;;;;;15.60;14.32;;;;;;;6.51;65.20;101202.25;5045634;28;20044;-82
2021/01/02 03:17:00;;;;;;;14.25;12.90;;;;;;;6.65;64.98;101217.03;5046190;28;20072;-82
2021/01/02 03:19:30;;;;;;;18.88;17.45;;;;;;;6.65;64.74;101217.03;5043536;28;20048;-82
2021/01/02 03:21:56;;;;;;;16.08;14.93;;;;;;;6.63;64.60;101219.03;5044844;28;20047;-82
2021/01/02 03:24:21;;;;;;;19.77;18.33;;;;;;;6.56;64.53;101217.97;5046068;28;20107;-82
2021/01/02 03:26:47;;;;;;;16.95;15.30;;;;;;;6.58;64.49;101221.34;5046119;28;20033;-83
2021/01/02 03:29:13;;;;;;;13.43;12.43;;;;;;;6.56;64.69;101221.53;5046414;28;20071;-83
2021/01/02 03:31:39;;;;;;;10.27;9.38;;;;;;;6.54;64.69;101228.94;5047110;28;20035;-82
2021/01/02 03:34:05;;;;;;;17.30;16.05;;;;;;;6.58;64.83;101221.34;5048085;28;20028;-83
2021/01/02 03:36:30;;;;;;;16.30;14.60;;;;;;;6.63;64.69;101221.75;5043268;28;20107;-83
2021/01/02 03:38:58;;;;;;;18.17;16.75;;;;;;;6.69;64.81;101217.53;5044080;28;20128;-82
2021/01/02 03:41:25;;;;;;;19.40;18.05;;;;;;;6.66;64.59;101215.16;5043819;28;20052;-82
2021/01/02 03:43:51;;;;;;;14.10;13.05;;;;;;;6.70;64.59;101222.78;5044480;28;20120;-82
2021/01/02 03:46:17;;;;;;;17.60;16.33;;;;;;;6.68;64.73;101219.41;5045481;28;20029;-82
2021/01/02 03:48:42;;;;;;;14.98;13.88;;;;;;;6.70;64.70;101222.78;5047232;28;20650;-81
2021/01/02 03:51:08;;;;;;;12.88;11.98;;;;;;;6.65;64.57;101211.63;5043899;28;20042;-83
2021/01/02 03:53:33;;;;;;;16.17;15.05;;;;;;;6.70;64.68;101211.13;5047704;28;20029;-82
2021/01/02 03:55:59;;;;;;;12.95;11.77;;;;;;;6.74;64.59;101207.09;5045273;28;20064;-82
2021/01/02 03:58:24;;;;;;;12.60;11.63;;;;;;;6.72;64.66;101214.50;5039806;28;20037;-81
2021/01/02 04:00:50;;;;;;;14.65;13.45;;;;;;;6.73;64.60;101214.34;5028774;28;20046;-81
2021/01/02 04:03:15;;;;;;;18.98;17.58;;;;;;;6.73;64.57;101218.91;5046970;28;20036;-81
2021/01/02 04:05:44;;;;;;;21.90;20.25;;;;;;;6.74;64.47;101221.44;5042915;28;20036;-81
2021/01/02 04:08:10;;;;;;;22.48;20.88;;;;;;;6.76;64.56;101222.13;5044851;28;20036;-82
2021/01/02 04:10:35;;;;;;;17.92;16.35;;;;;;;6.74;64.61;101212.50;5046501;28;20041;-81
2021/01/02 04:13:01;;;;;;;15.43;14.23;;;;;;;6.70;64.59;101216.53;5043183;28;20029;-81
2021/01/02 04:15:26;;;;;;;8.05;7.35;;;;;;;6.65;64.43;101208.06;5044993;28;20125;-81
2021/01/02 04:17:52;;;;;;;9.43;8.73;;;;;;;6.63;64.56;101221.75;5040188;28;20036;-81
2021/01/02 04:20:17;;;;;;;15.15;14.05;;;;;;;6.56;64.49;101215.28;5043656;28;20713;-81
2021/01/02 04:22:43;;;;;;;11.57;10.68;;;;;;;6.51;64.47;101220.34;5047533;28;20045;-81
2021/01/02 04:25:09;;;;;;;16.63;15.30;;;;;;;6.49;64.68;101215.09;5048311;28;20578;-81
2021/01/02 04:27:34;;;;;;;14.88;13.65;;;;;;;6.47;64.57;101213.53;5048616;28;20075;-80
2021/01/02 04:30:00;;;;;;;14.60;13.60;;;;;;;6.43;64.55;101218.44;5045982;28;20116;-81
2021/01/02 04:32:25;;;;;;;12.90;12.00;;;;;;;6.37;64.57;101219.06;5047423;28;20086;-81
2021/01/02 04:34:51;;;;;;;11.25;10.13;;;;;;;6.27;64.59;101216.44;5036527;28;20502;-81
2021/01/02 04:37:16;;;;;;;16.27;14.88;;;;;;;6.20;64.65;101215.41;5048348;28;20037;-81
2021/01/02 04:39:42;;;;;;;14.38;13.38;;;;;;;6.18;64.61;101220.97;5046189;28;20029;-81
2021/01/02 04:42:07;;;;;;;13.43;12.32;;;;;;;6.04;64.23;101211.59;5046317;28;20583;-80
2021/01/02 04:44:34;;;;;;;12.20;11.32;;;;;;;6.02;64.45;101212.75;5047509;28;20049;-81
2021/01/02 04:47:02;;;;;;;11.48;10.40;;;;;;;5.98;64.41;101223.03;5046620;28;20059;-80
2021/01/02 04:49:27;;;;;;;8.60;7.93;;;;;;;5.98;64.55;101214.91;5049164;28;20028;-81
2021/01/02 04:52:02;;;;;;;11.38;10.57;;;;;;;5.97;64.58;101218.63;5047239;28;20079;-80
2021/01/02 04:54:28;;;;;;;8.13;7.63;;;;;;;5.94;64.45;101215.38;5051135;28;20040;-81
2021/01/02 04:56:54;;;;;;;14.40;13.32;;;;;;;5.97;64.54;101229.41;5046994;28;20029;-81
2021/01/02 04:59:25;;;;;;;13.98;13.10;;;;;;;5.99;64.57;101229.25;5050530;28;20266;-81
2021/01/02 05:01:52;;;;;;;12.48;11.48;;;;;;;5.92;64.54;101229.84;5046431;28;20082;-81
2021/01/02 05:04:17;;;;;;;18.55;17.27;;;;;;;5.90;64.56;101231.00;5044987;28;20025;-80
2021/01/02 05:06:43;;;;;;;15.52;14.52;;;;;;;5.93;64.65;101228.00;5045191;28;20029;-81
2021/01/02 05:09:09;;;;;;;11.65;10.85;;;;;;;5.89;64.70;101234.72;5045620;28;20021;-81
2021/01/02 05:11:36;;;;;;;14.75;13.75;;;;;;;5.91;64.65;101236.25;5039253;28;20067;-81
2021/01/02 05:14:02;;;;;;;16.83;15.70;;;;;;;5.95;64.63;101230.53;5049172;28;20041;-81
2021/01/02 05:19:08;;;;;;;9.85;9.25;;;;;;;6.08;64.72;101239.13;5045719;28;20047;-80
2021/01/02 05:21:35;;;;;;;10.07;9.27;;;;;;;6.16;64.59;101238.31;5047254;28;20029;-81
2021/01/02 05:24:05;;;;;;;12.93;12.02;;;;;;;6.14;64.74;101240.34;5044750;28;20037;-81
2021/01/02 05:26:32;;;;;;;14.48;13.50;;;;;;;6.19;64.63;101246.94;5047818;28;20033;-81
2021/01/02 05:29:15;;;;;;;10.05;9.25;;;;;;;6.19;64.67;101243.41;5045488;28;20030;-81
2021/01/02 05:31:55;;;;;;;9.70;9.10;;;;;;;6.26;64.53;101247.19;5046614;28;20043;-81
2021/01/02 05:34:26;;;;;;;12.02;11.13;;;;;;;6.28;64.59;101250.56;5041753;28;20041;-81
2021/01/02 05:37:04;;;;;;;17.05;15.90;;;;;;;6.31;64.64;101252.13;5048392;28;20558;-81
2021/01/02 05:39:43;;;;;;;15.80;14.75;;;;;;;6.27;64.52;101259.66;5061073;28;20631;-81
2021/01/02 05:42:09;;;;;;;14.32;13.25;;;;;;;6.24;64.76;101254.59;5043438;28;20384;-81
2021/01/02 05:44:36;;;;;;;13.18;12.27;;;;;;;6.15;64.36;101255.53;5048628;28;20048;-81
2021/01/02 05:47:02;;;;;;;11.90;11.20;;;;;;;6.13;64.40;101252.16;5046390;28;20040;-81
2021/01/02 05:49:32;;;;;;;14.13;13.15;;;;;;;6.07;64.51;101259.00;5045334;28;20033;-81
2021/01/02 05:51:58;;;;;;;7.43;6.93;;;;;;;6.03;64.54;101255.78;5046849;28;20029;-81
2021/01/02 05:54:29;;;;;;;8.63;7.93;;;;;;;5.97;64.35;101253.72;5047223;28;20033;-81
2021/01/02 05:57:05;;;;;;;9.03;8.43;;;;;;;5.92;64.68;101259.53;5042188;28;20051;-80
2021/01/02 05:59:37;;;;;;;12.82;11.93;;;;;;;5.94;64.73;101254.00;5046610;28;20037;-81
2021/01/02 06:02:19;;;;;;;12.77;11.98;;;;;;;5.93;64.72;101257.69;5046197;28;20033;-81
2021/01/02 06:05:04;;;;;;;12.15;11.27;;;;;;;5.97;64.78;101260.97;5049552;28;20036;-80
2021/01/02 06:07:34;;;;;;;11.50;10.75;;;;;;;5.97;64.75;101263.66;5043492;28;20044;-80
2021/01/02 06:10:01;;;;;;;10.85;10.20;;;;;;;5.96;64.79;101261.94;5047356;28;20100;-80
2021/01/02 06:12:29;;;;;;;14.35;13.52;;;;;;;5.99;64.59;101270.59;5048980;28;20501;-80
2021/01/02 06:14:56;;;;;;;10.00;9.30;;;;;;;6.01;64.98;101260.50;5042206;28;20829;-80
2021/01/02 06:17:27;;;;;;;9.55;8.95;;;;;;;6.03;64.94;101257.66;5045368;28;20040;-80
2021/01/02 06:19:53;;;;;;;11.77;11.07;;;;;;;6.05;64.90;101267.25;5045955;28;20398;-80
2021/01/02 06:22:19;;;;;;;8.80;8.20;;;;;;;6.06;64.76;101266.28;5046271;28;20021;-80
2021/01/02 06:24:47;;;;;;;7.97;7.47;;;;;;;6.06;64.79;101258.16;5048936;28;20499;-81
2021/01/02 06:27:13;;;;;;;11.77;10.95;;;;;;;6.08;64.82;101256.16;5047127;28;20060;-82
2021/01/02 06:29:38;;;;;;;14.85;13.68;;;;;;;6.06;64.83;101255.47;5048335;28;20114;-81
2021/01/02 06:32:06;;;;;;;13.15;12.15;;;;;;;5.99;64.65;101253.56;5045156;28;20474;-80
2021/01/02 06:34:32;;;;;;;11.18;10.48;;;;;;;5.97;64.63;101269.91;5045774;28;20037;-80
2021/01/02 06:36:57;;;;;;;11.25;10.52;;;;;;;5.92;64.56;101267.63;5046850;28;21528;-80
2021/01/02 06:39:24;;;;;;;14.32;13.43;;;;;;;5.88;64.86;101270.81;5044969;28;20036;-80
2021/01/02 06:41:52;;;;;;;13.90;12.73;;;;;;;5.88;64.71;101276.22;5044676;28;20124;-80
2021/01/02 06:44:40;;;;;;;13.48;12.57;;;;;;;5.82;64.68;101269.56;5052262;28;22225;-81
2021/01/02 06:47:13;;;;;;;12.45;11.45;;;;;;;5.80;64.64;101279.69;5040373;28;20037;-80
2021/01/02 06:49:39;;;;;;;13.52;12.73;;;;;;;5.74;64.87;101275.72;5045410;28;20718;-81
2021/01/02 06:52:05;;;;;;;22.10;20.65;;;;;;;5.71;64.86;101278.75;5046269;28;20032;-80
2021/01/02 06:54:30;;;;;;;19.33;17.92;;;;;;;5.65;64.89;101265.03;5033001;28;20094;-80
2021/01/02 06:57:04;;;;;;;14.90;13.90;;;;;;;5.66;64.87;101275.66;5046625;28;20044;-81
2021/01/02 06:59:29;;;;;;;19.25;17.98;;;;;;;5.67;64.94;101274.66;5046939;28;20031;-81
2021/01/02 07:01:55;;;;;;;17.33;16.20;;;;;;;5.68;64.87;101279.03;5046498;28;20394;-82
2021/01/02 07:04:35;;;;;;;16.77;15.77;;;;;;;5.71;65.06;101277.91;5048267;28;20116;-80
2021/01/02 07:07:01;;;;;;;19.63;18.13;;;;;;;5.73;65.44;101279.44;5035514;28;20036;-80
2021/01/02 07:09:29;;;;;;;12.93;12.10;;;;;;;5.77;64.82;101281.84;5046116;28;20064;-80
2021/01/02 07:12:13;;;;;;;29.35;27.35;;;;;;;5.74;64.78;101281.13;5044440;28;20029;-80
2021/01/02 07:14:40;;;;;;;16.92;15.80;;;;;;;5.73;64.70;101292.94;5046024;28;20028;-80
2021/01/02 07:17:09;;;;;;;20.75;19.23;;;;;;;5.67;64.66;101288.16;5043981;28;20059;-81
2021/01/02 07:19:39;;;;;;;16.73;15.73;;;;;;;5.66;64.84;101291.00;5027584;28;20582;-81
2021/01/02 07:22:24;;;;;;;21.27;19.75;;;;;;;5.67;64.72;101290.00;5046240;28;20091;-80
2021/01/02 07:25:08;;;;;;;19.05;17.70;;;;;;;5.58;64.62;101289.09;5047325;28;20071;-80
2021/01/02 07:27:39;;;;;;;14.88;13.88;;;;;;;5.56;64.70;101301.84;5044832;28;20118;-80
2021/01/02 07:30:10;;;;;;;14.55;13.35;;;;;;;5.55;64.55;101302.88;5029681;28;20021;-80
2021/01/02 07:32:37;;;;;;;13.65;12.48;;;;;;;5.58;64.81;101307.97;5042788;28;20124;-80
2021/01/02 07:35:11;;;;;;;8.20;7.60;;;;;;;5.61;64.68;101304.09;5045675;28;20025;-81
2021/01/02 07:37:39;;;;;;;12.93;12.02;;;;;;;5.61;64.76;101307.66;5041983;28;20159;-80
2021/01/02 07:40:07;;;;;;;14.27;12.98;;;;;;;5.48;65.24;101324.19;5042188;28;20025;-81
2021/01/02 07:42:36;;;;;;;15.80;14.43;;;;;;;5.69;66.15;101326.63;5042598;28;20032;-82
2021/01/02 07:45:13;;;;;;;15.68;14.23;;;;;;;5.85;65.94;101325.09;5043681;28;20056;-81
2021/01/02 07:47:49;;;;;;;11.10;10.07;;;;;;;5.98;65.67;101322.91;5043151;28;20064;-80
2021/01/02 07:50:16;;;;;;;15.88;14.32;;;;;;;6.04;65.35;101326.81;5055768;28;20034;-81
2021/01/02 07:52:59;;;;;;;16.08;14.85;;;;;;;6.13;65.32;101333.16;5041733;28;20103;-82
2021/01/02 07:55:26;;;;;;;21.05;19.05;;;;;;;6.14;65.48;101318.66;5046063;28;20032;-80
2021/01/02 07:57:52;;;;;;;13.43;12.25;;;;;;;6.22;65.57;101330.34;5047480;28;20021;-81
2021/01/02 08:00:18;;;;;;;19.17;17.83;;;;;;;6.32;65.37;101329.41;5047345;28;20098;-81
2021/01/02 08:02:44;;;;;;;15.30;13.68;;;;;;;6.37;65.48;101327.13;5051043;28;20037;-81
2021/01/02 08:05:09;;;;;;;12.05;10.93;;;;;;;6.44;65.78;101331.75;5049903;28;20055;-81
2021/01/02 08:07:35;;;;;;;15.50;11.77;;;;;;;6.52;65.83;101332.78;5051343;28;20040;-81
2021/01/02 08:10:00;;;;;;;13.98;12.65;;;;;;;6.61;65.46;101324.59;5050665;28;20056;-81
2021/01/02 08:12:26;;;;;;;14.30;12.85;;;;;;;6.65;65.27;101335.09;5049613;28;20033;-81
2021/01/02 08:14:52;;;;;;;16.83;15.50;;;;;;;6.70;65.26;101332.75;5049988;28;20037;-81
2021/01/02 08:17:19;;;;;;;11.50;10.50;;;;;;;6.75;65.17;101336.69;5047465;28;20119;-81
2021/01/02 08:19:47;;;;;;;10.95;8.57;;;;;;;6.79;65.14;101334.50;5049251;28;20029;-80
2021/01/02 08:22:37;;;;;;;8.23;7.32;;;;;;;6.81;65.03;101338.75;5047594;28;20048;-81
2021/01/02 08:25:04;;;;;;;12.90;11.90;;;;;;;6.84;65.04;101337.56;5048007;28;20517;-80
2021/01/02 08:27:31;;;;;;;8.82;7.95;;;;;;;6.87;65.00;101336.41;5047510;28;20033;-80
2021/01/02 08:30:02;;;;;;;10.80;9.85;;;;;;;6.84;64.99;101329.44;5049859;28;20692;-80
2021/01/02 08:32:29;;;;;;;9.43;8.55;;;;;;;6.90;64.93;101341.50;5045838;28;20033;-81
2021/01/02 08:34:54;;;;;;;10.23;9.30;;;;;;;6.95;64.74;101339.16;5047896;28;20431;-81
2021/01/02 08:37:20;;;;;;;11.90;10.93;;;;;;;6.96;64.93;101335.44;5043304;28;20036;-81
2021/01/02 08:39:46;;;;;;;11.15;10.13;;;;;;;7.02;64.85;101339.38;5045784;28;20481;-81
2021/01/02 08:42:12;;;;;;;12.75;11.65;;;;;;;7.31;64.86;101349.84;5052565;28;20028;-81
2021/01/02 08:44:44;;;;;;;9.68;8.88;;;;;;;8.14;64.85;101346.31;5049754;28;20041;-80
2021/01/02 08:47:10;;;;;;;10.20;9.38;;;;;;;9.38;63.90;101347.00;5047425;28;20029;-80
2021/01/02 08:49:41;;;;;;;12.82;11.50;;;;;;;10.63;62.85;101347.88;5047001;28;20033;-81
2021/01/02 08:52:20;;;;;;;12.63;9.82;;;;;;;11.84;61.55;101353.97;5048014;28;20032;-81
2021/01/02 08:54:47;;;;;;;10.02;9.02;;;;;;;12.59;60.04;101357.25;5046850;28;20059;-81
2021/01/02 08:57:42;;;;;;;8.90;7.00;;;;;;;13.35;59.27;101361.16;5046458;28;20025;-81
2021/01/02 09:00:11;;;;;;;11.95;10.80;;;;;;;14.04;57.68;101362.06;5047045;28;20427;-81
2021/01/02 09:02:38;;;;;;;11.40;7.53;;;;;;;13.57;57.38;101360.00;5048952;28;20037;-82
2021/01/02 09:05:05;;;;;;;11.75;5.95;;;;;;;13.50;58.28;101369.22;5047640;28;20061;-82
2021/01/02 09:07:33;;;;;;;9.75;5.35;;;;;;;13.71;57.21;101368.25;5048968;28;20033;-81
2021/01/02 09:10:19;;;;;;;7.53;5.32;;;;;;;13.13;54.93;101366.69;5049652;28;20029;-81
2021/01/02 09:13:02;;;;;;;6.50;5.90;;;;;;;12.27;54.10;101369.56;5049904;28;20029;-81
2021/01/02 09:16:06;;;;;;;6.47;5.97;;;;;;;11.51;55.51;101378.06;5048303;28;20036;-81
2021/01/02 09:18:32;;;;;;;7.57;6.18;;;;;;;11.00;57.21;101371.50;5046330;28;20040;-81
2021/01/02 09:20:59;;;;;;;6.63;6.03;;;;;;;10.59;57.90;101377.34;5048760;28;20512;-82
2021/01/02 09:23:38;;;;;;;7.65;6.55;;;;;;;10.27;58.64;101372.97;5044985;28;20121;-82
2021/01/02 09:26:04;;;;;;;6.57;5.50;;;;;;;10.06;59.43;101371.75;5048830;28;20525;-82
2021/01/02 09:28:43;;;;;;;6.13;4.80;;;;;;;9.96;59.42;101382.88;5047709;28;20104;-82
2021/01/02 09:31:08;;;;;;;7.57;6.95;;;;;;;9.87;59.51;101370.38;5044655;28;20036;-82
2021/01/02 09:33:34;;;;;;;7.63;7.03;;;;;;;10.02;59.78;101376.72;5048009;28;20037;-82
2021/01/02 09:35:59;;;;;;;7.03;6.15;;;;;;;10.51;60.43;101375.53;5044785;28;20034;-82
2021/01/02 09:38:25;;;;;;;13.90;11.02;;;;;;;10.74;59.51;101375.50;5047683;28;20029;-83
2021/01/02 09:40:50;;;;;;;24.13;17.00;;;;;;;10.98;59.29;101383.59;5046444;28;20140;-83
2021/01/02 09:43:16;;;;;;;13.88;10.52;;;;;;;11.06;59.66;101376.22;5040584;28;20029;-84
2021/01/02 09:45:43;;;;;;;8.35;6.85;;;;;;;11.47;59.21;101399.41;5031649;28;20056;-84
2021/01/02 09:48:10;;;;;;;5.68;5.28;;;;;;;11.50;57.45;101390.03;5046314;28;20033;-86
2021/01/02 09:50:36;;;;;;;7.35;5.75;;;;;;;11.35;57.70;101390.84;5045775;28;20037;-85
2021/01/02 09:53:03;;;;;;;4.07;3.88;;;;;;;11.54;57.98;101394.03;5029750;28;20040;-84
2021/01/02 09:55:29;;;;;;;3.97;3.63;;;;;;;11.59;57.75;101388.88;5048595;28;20106;-85
2021/01/02 09:57:54;;;;;;;4.05;3.67;;;;;;;11.70;58.32;101387.56;5046325;28;20074;-83
2021/01/02 10:00:20;;;;;;;5.45;3.70;;;;;;;11.73;58.44;101390.72;5043992;28;20032;-85
2021/01/02 10:02:46;;;;;;;2.67;2.58;;;;;;;11.90;58.57;101383.19;5044740;28;20042;-84
2021/01/02 10:05:13;;;;;;;3.83;3.63;;;;;;;11.86;58.34;101392.75;5041357;28;20032;-84
2021/01/02 10:07:39;;;;;;;2.58;2.35;;;;;;;11.74;58.67;101389.69;5045579;28;20382;-84
2021/01/02 10:10:05;;;;;;;7.10;3.10;;;;;;;11.62;58.90;101383.06;5046357;28;20238;-84
2021/01/02 10:12:31;;;;;;;3.80;3.60;;;;;;;11.47;59.13;101380.34;5042960;28;20102;-85
2021/01/02 10:14:56;;;;;;;3.33;3.05;;;;;;;11.38;59.10;101382.31;5045147;28;20442;-83
2021/01/02 10:17:22;;;;;;;4.38;4.18;;;;;;;11.35;59.55;101396.28;5045045;28;20088;-84
2021/01/02 10:19:47;;;;;;;5.70;5.32;;;;;;;11.09;59.49;101385.84;5043689;28;20059;-84
2021/01/02 10:22:16;;;;;;;5.18;3.95;;;;;;;11.04;59.77;101391.88;5028024;28;20517;-84
2021/01/02 10:24:45;;;;;;;4.28;3.97;;;;;;;10.86;60.04;101381.34;5045074;28;20145;-84
2021/01/02 10:27:10;;;;;;;6.88;5.28;;;;;;;10.77;60.21;101374.28;5043258;28;20580;-84
2021/01/02 10:29:36;;;;;;;8.18;7.03;;;;;;;10.71;60.19;101383.19;5044179;28;20037;-85
2021/01/02 10:32:04;;;;;;;10.45;9.52;;;;;;;10.75;60.31;101396.25;5027330;28;20040;-86
2021/01/02 10:34:30;;;;;;;6.25;5.80;;;;;;;10.84;60.53;101391.56;5044979;28;20025;-85
2021/01/02 10:36:56;;;;;;;7.15;6.45;;;;;;;11.00;60.57;101382.41;5039739;28;20495;-84
2021/01/02 10:39:22;;;;;;;8.13;6.68;;;;;;;11.20;60.39;101387.28;5046508;28;20025;-85
2021/01/02 10:41:49;;;;;;;6.10;5.43;;;;;;;11.18;60.28;101390.19;5047425;28;20079;-84
2021/01/02 10:44:15;;;;;;;7.40;6.90;;;;;;;11.51;60.64;101400.72;5045447;28;20130;-84
2021/01/02 10:46:49;;;;;;;4.85;4.40;;;;;;;12.00;60.90;101385.63;5047538;28;20036;-84
2021/01/02 10:49:16;;;;;;;9.60;6.22;;;;;;;12.54;60.25;101384.28;5036760;28;20033;-86
2021/01/02 10:51:42;;;;;;;8.40;5.97;;;;;;;12.92;59.18;101385.88;5045682;28;20030;-85
2021/01/02 10:54:12;;;;;;;8.70;5.65;;;;;;;13.17;57.86;101392.53;5032456;28;20381;-85
2021/01/02 10:56:42;;;;;;;10.68;3.85;;;;;;;13.07;56.67;101378.41;5043302;28;20033;-86
2021/01/02 10:59:07;;;;;;;5.68;3.55;;;;;;;13.04;56.35;101382.38;5046735;28;20040;-85
2021/01/02 11:01:44;;;;;;;4.90;3.63;;;;;;;12.75;56.03;101386.16;5045352;28;20040;-85
2021/01/02 11:04:10;;;;;;;7.80;4.10;;;;;;;12.39;56.63;101383.50;5045059;28;20060;-86
2021/01/02 11:06:38;;;;;;;7.03;3.05;;;;;;;12.10;57.46;101377.16;5045135;28;20029;-84
2021/01/02 11:09:09;;;;;;;3.17;1.40;;;;;;;11.95;57.86;101386.19;5046273;28;20648;-85
2021/01/02 11:11:34;;;;;;;1.45;1.15;;;;;;;11.77;58.34;101383.00;5042010;28;20033;-85
2021/01/02 11:14:00;;;;;;;3.47;2.22;;;;;;;11.59;58.28;101387.00;5045238;28;20083;-85
2021/01/02 11:16:34;;;;;;;4.22;1.65;;;;;;;11.44;58.78;101365.19;5044243;28;20130;-85
2021/01/02 11:18:59;;;;;;;3.00;1.48;;;;;;;11.44;58.58;101354.31;5049315;28;20142;-85
2021/01/02 11:21:25;;;;;;;3.20;3.10;;;;;;;11.28;58.27;101347.19;5032628;28;20487;-86
2021/01/02 11:23:51;;;;;;;2.03;1.77;;;;;;;11.17;58.07;101344.97;5029487;28;20064;-86
2021/01/02 11:26:17;;;;;;;3.42;1.30;;;;;;;11.15;57.73;101340.72;5029316;28;20120;-87
2021/01/02 11:28:42;;;;;;;1.08;1.08;;;;;;;11.45;57.65;101361.47;5033223;28;20040;-89
2021/01/02 11:31:08;;;;;;;2.40;2.20;;;;;;;11.67;57.01;101355.25;5045019;28;20120;-87
2021/01/02 11:33:34;;;;;;;3.20;2.92;;;;;;;12.04;56.18;101351.50;5033893;28;20040;-89
2021/01/02 11:35:59;;;;;;;4.32;4.03;;;;;;;12.60;55.57;101360.81;5053085;28;20430;-87